createdAt,value
2023-02-03T00:01:46.016Z,101850.97
2023-02-03T00:04:12.489Z,101861.47
2023-02-03T00:06:39.595Z,101805.72
2023-02-03T00:09:06.099Z,101838.84
2023-02-03T00:11:32.651Z,101749.06
2023-02-03T00:13:59.329Z,101862.38
2023-02-03T00:16:25.751Z,101736.00
2023-02-03T00:18:52.185Z,101801.38
2023-02-03T00:21:18.564Z,101736.88
2023-02-03T00:23:44.901Z,101841.44
2023-02-03T00:26:16.658Z,101846.69
2023-02-03T00:28:43.256Z,101733.38
2023-02-03T00:31:17.832Z,101830.97
2023-02-03T00:33:44.325Z,101803.97
2023-02-03T00:36:11.315Z,101798.75
2023-02-03T00:38:37.693Z,101809.22
2023-02-03T00:41:04.197Z,101668.97
2023-02-03T00:43:30.666Z,101764.75
2023-02-03T00:45:57.151Z,101682.03
2023-02-03T00:48:23.529Z,101763.91
2023-02-03T00:50:49.957Z,101752.56
2023-02-03T00:53:16.356Z,101792.63
2023-02-03T00:55:43.710Z,101734.28
2023-02-03T00:58:10.248Z,101776.94
2023-02-03T01:00:36.655Z,101715.94
2023-02-03T01:03:03.328Z,101812.66
2023-02-03T01:05:29.750Z,101822.25
2023-02-03T01:07:56.147Z,101837.97
2023-02-03T01:10:22.568Z,101831.00
2023-02-03T01:12:48.953Z,101806.59
2023-02-03T01:15:15.354Z,101839.69
2023-02-03T01:17:41.731Z,101842.31
2023-02-03T01:20:08.946Z,101750.81
2023-02-03T01:22:35.325Z,101862.38
2023-02-03T01:25:01.752Z,101726.44
2023-02-03T01:27:28.060Z,101874.59
2023-02-03T01:29:54.489Z,101770.81
2023-02-03T01:32:20.986Z,101851.91
2023-02-03T01:34:47.347Z,101832.75
2023-02-03T01:37:17.049Z,101846.59
2023-02-03T01:39:44.088Z,101881.53
2023-02-03T01:42:15.174Z,101883.28
2023-02-03T01:44:52.015Z,101637.56
2023-02-03T01:47:27.787Z,101888.53
2023-02-03T01:50:09.132Z,101784.78
2023-02-03T01:52:37.728Z,101768.19
2023-02-03T01:55:07.590Z,101851.91
2023-02-03T01:57:39.895Z,101874.59
2023-02-03T02:00:08.003Z,101881.53
2023-02-03T02:02:34.426Z,101736.88
2023-02-03T02:05:14.678Z,101853.66
2023-02-03T02:07:42.639Z,101858.03
2023-02-03T02:10:09.904Z,101857.16
2023-02-03T02:12:36.430Z,101753.44
2023-02-03T02:15:03.851Z,101780.47
2023-02-03T02:17:39.350Z,101873.69
2023-02-03T02:20:05.637Z,101876.28
2023-02-03T02:22:50.702Z,101871.06
2023-02-03T02:25:26.140Z,101867.59
2023-02-03T02:28:03.994Z,101865.84
2023-02-03T02:30:49.715Z,101726.44
2023-02-03T02:33:40.962Z,101841.41
2023-02-03T02:36:07.329Z,101846.66
2023-02-03T02:38:48.223Z,101846.63
2023-02-03T02:41:52.371Z,101844.91
2023-02-03T02:44:35.329Z,101819.59
2023-02-03T02:47:11.128Z,101824.88
2023-02-03T02:49:44.613Z,101796.13
2023-02-03T02:52:14.867Z,101834.47
2023-02-03T02:54:46.898Z,101857.16
2023-02-03T02:57:16.105Z,101849.28
2023-02-03T02:59:42.659Z,101733.38
2023-02-03T03:02:11.699Z,101820.53
2023-02-03T03:04:38.677Z,101840.56
2023-02-03T03:07:11.880Z,101856.25
2023-02-03T03:09:50.547Z,101853.66
2023-02-03T03:12:29.365Z,101764.75
2023-02-03T03:15:00.991Z,101775.19
2023-02-03T03:17:34.917Z,101829.19
2023-02-03T03:20:08.710Z,101824.88
2023-02-03T03:22:41.459Z,101822.28
2023-02-03T03:25:15.473Z,101848.38
2023-02-03T03:27:48.336Z,101834.44
2023-02-03T03:30:23.467Z,101789.16
2023-02-03T03:32:50.784Z,101822.22
2023-02-03T03:35:17.755Z,101808.31
2023-02-03T03:37:50.494Z,101832.69
2023-02-03T03:40:25.750Z,101844.91
2023-02-03T03:43:01.205Z,101771.75
2023-02-03T03:45:38.200Z,101722.94
2023-02-03T03:48:34.060Z,101839.66
2023-02-03T03:51:05.196Z,101732.50
2023-02-03T03:53:34.512Z,101797.88
2023-02-03T03:56:03.567Z,101836.22
2023-02-03T03:58:32.379Z,101842.28
2023-02-03T04:01:05.140Z,101776.94
2023-02-03T04:03:56.892Z,101697.69
2023-02-03T04:06:23.704Z,101781.28
2023-02-03T04:08:50.306Z,101823.13
2023-02-03T04:11:36.634Z,101692.47
2023-02-03T04:14:03.439Z,101806.59
2023-02-03T04:16:29.987Z,101769.13
2023-02-03T04:18:58.839Z,101688.09
2023-02-03T04:21:25.237Z,101789.19
2023-02-03T04:23:52.231Z,101644.56
2023-02-03T04:26:18.691Z,101641.13
2023-02-03T04:28:45.123Z,101721.19
2023-02-03T04:31:11.694Z,101695.94
2023-02-03T04:33:38.104Z,101818.78
2023-02-03T04:36:04.700Z,101800.47
2023-02-03T04:38:31.100Z,101694.19
2023-02-03T04:40:57.540Z,101831.00
2023-02-03T04:43:23.940Z,101696.81
2023-02-03T04:45:50.606Z,101717.69
2023-02-03T04:48:17.038Z,101815.28
2023-02-03T04:50:43.452Z,101755.19
2023-02-03T04:53:09.788Z,101766.53
2023-02-03T04:55:36.166Z,101684.63
2023-02-03T04:58:02.708Z,101635.88
2023-02-03T05:00:29.764Z,101735.13
2023-02-03T05:02:56.373Z,101745.56
2023-02-03T05:05:22.777Z,101705.50
2023-02-03T05:07:49.171Z,101700.28
2023-02-03T05:10:23.526Z,101708.13
2023-02-03T05:12:50.019Z,101817.03
2023-02-03T05:15:16.425Z,101824.00
2023-02-03T05:17:42.850Z,101738.59
2023-02-03T05:20:10.141Z,101724.66
2023-02-03T05:22:36.594Z,101736.91
2023-02-03T05:25:04.015Z,101810.00
2023-02-03T05:27:30.703Z,101776.94
2023-02-03T05:29:57.180Z,101673.31
2023-02-03T05:32:23.536Z,101795.19
2023-02-03T05:34:49.927Z,101786.50
2023-02-03T05:37:16.445Z,101793.44
2023-02-03T05:39:43.116Z,101678.53
2023-02-03T05:42:09.467Z,101663.75
2023-02-03T05:44:40.006Z,101762.16
2023-02-03T05:47:06.369Z,101722.94
2023-02-03T05:49:32.829Z,101681.16
2023-02-03T05:51:59.472Z,101703.75
2023-02-03T05:54:25.905Z,101715.97
2023-02-03T05:56:52.567Z,101740.34
2023-02-03T05:59:18.935Z,101814.44
2023-02-03T06:01:45.303Z,101746.44
2023-02-03T06:04:11.973Z,101827.50
2023-02-03T06:06:38.462Z,101836.19
2023-02-03T06:09:07.755Z,101847.53
2023-02-03T06:11:35.873Z,101818.78
2023-02-03T06:14:02.802Z,101783.06
2023-02-03T06:16:29.580Z,101823.16
2023-02-03T06:19:00.773Z,101869.31
2023-02-03T06:21:28.312Z,101829.22
2023-02-03T06:23:55.861Z,101812.66
2023-02-03T06:26:22.305Z,101731.63
2023-02-03T06:28:48.736Z,101727.31
2023-02-03T06:31:15.352Z,101729.88
2023-02-03T06:33:41.844Z,101818.75
2023-02-03T06:36:08.633Z,101728.16
2023-02-03T06:38:34.989Z,101682.88
2023-02-03T06:41:01.409Z,101729.91
2023-02-03T06:43:30.272Z,101770.00
2023-02-03T06:45:56.625Z,101794.38
2023-02-03T06:48:23.739Z,101788.28
2023-02-03T06:50:50.747Z,101827.47
2023-02-03T06:53:17.294Z,101815.28
2023-02-03T06:55:43.652Z,101845.78
2023-02-03T06:58:09.989Z,101746.44
2023-02-03T07:00:36.450Z,101716.84
2023-02-03T07:03:03.069Z,101714.25
2023-02-03T07:05:29.890Z,101749.94
2023-02-03T07:07:56.386Z,101737.72
2023-02-03T07:10:23.159Z,101795.25
2023-02-03T07:12:50.708Z,101838.81
2023-02-03T07:15:17.850Z,101728.16
2023-02-03T07:17:44.253Z,101838.81
2023-02-03T07:20:11.151Z,101847.53
2023-02-03T07:22:38.625Z,101811.81
2023-02-03T07:25:05.354Z,101801.31
2023-02-03T07:27:31.697Z,101820.47
2023-02-03T07:29:58.059Z,101830.09
2023-02-03T07:32:24.409Z,101770.84
2023-02-03T07:34:50.732Z,101792.66
2023-02-03T07:37:17.113Z,101817.03
2023-02-03T07:39:43.521Z,101843.13
2023-02-03T07:42:09.925Z,101794.38
2023-02-03T07:44:36.289Z,101843.13
2023-02-03T07:47:02.673Z,101719.47
2023-02-03T07:49:29.003Z,101763.88
2023-02-03T07:51:56.433Z,101824.88
2023-02-03T07:54:22.774Z,101710.75
2023-02-03T07:56:49.176Z,101750.81
2023-02-03T07:59:16.969Z,101785.69
2023-02-03T08:01:43.370Z,101844.94
2023-02-03T08:04:12.023Z,101878.88
2023-02-03T08:06:38.362Z,101853.59
2023-02-03T08:09:04.807Z,101851.91
2023-02-03T08:11:32.491Z,101885.00
2023-02-03T08:13:58.861Z,101846.66
2023-02-03T08:16:25.273Z,101825.75
2023-02-03T08:18:52.142Z,101815.28
2023-02-03T08:21:18.759Z,101778.69
2023-02-03T08:23:45.078Z,101859.75
2023-02-03T08:26:11.418Z,101864.06
2023-02-03T08:28:37.887Z,101862.38
2023-02-03T08:31:11.117Z,101861.44
2023-02-03T08:33:37.695Z,101822.28
2023-02-03T08:36:05.747Z,101885.03
2023-02-03T08:38:32.557Z,101900.72
2023-02-03T08:40:59.108Z,101871.06
2023-02-03T08:43:25.488Z,101900.72
2023-02-03T08:45:52.111Z,101811.84
2023-02-03T08:48:18.518Z,101920.78
2023-02-03T08:50:51.810Z,101823.13
2023-02-03T08:53:18.680Z,101878.91
2023-02-03T08:55:45.022Z,101858.00
2023-02-03T08:58:11.379Z,101888.53
2023-02-03T09:00:37.814Z,101930.34
2023-02-03T09:03:04.245Z,101898.97
2023-02-03T09:05:31.617Z,101944.34
2023-02-03T09:07:58.250Z,101925.13
2023-02-03T09:10:24.711Z,101911.19
2023-02-03T09:12:51.333Z,101922.50
2023-02-03T09:15:17.837Z,101898.09
2023-02-03T09:17:44.279Z,101874.50
2023-02-03T09:20:13.172Z,101902.47
2023-02-03T09:22:39.677Z,101880.66
2023-02-03T09:25:07.390Z,101873.63
2023-02-03T09:27:33.738Z,101863.22
2023-02-03T09:30:00.089Z,101877.19
2023-02-03T09:32:26.520Z,101868.47
2023-02-03T09:34:52.874Z,101899.84
2023-02-03T09:37:19.385Z,101902.47
2023-02-03T09:39:45.804Z,101931.25
2023-02-03T09:42:28.691Z,101898.13
2023-02-03T09:45:07.010Z,101907.63
2023-02-03T09:47:38.260Z,101908.56
2023-02-03T09:50:11.777Z,101869.28
2023-02-03T09:52:40.865Z,101789.06
2023-02-03T09:55:20.561Z,101930.38
2023-02-03T09:57:57.092Z,101902.47
2023-02-03T10:00:31.260Z,101918.16
2023-02-03T10:03:23.140Z,101931.25
2023-02-03T10:05:57.769Z,101950.41
2023-02-03T10:08:51.365Z,101963.53
2023-02-03T10:11:49.552Z,101931.22
2023-02-03T10:14:42.728Z,101902.34
2023-02-03T10:17:26.450Z,101964.38
2023-02-03T10:20:01.311Z,101942.56
2023-02-03T10:22:30.751Z,101858.78
2023-02-03T10:25:07.245Z,101897.03
2023-02-03T10:27:35.227Z,101933.72
2023-02-03T10:30:17.078Z,101815.13
2023-02-03T10:32:43.465Z,101910.28
2023-02-03T10:35:13.983Z,101783.81
2023-02-03T10:37:48.135Z,101940.78
2023-02-03T10:40:16.856Z,101954.72
2023-02-03T10:43:15.404Z,101761.09
2023-02-03T10:45:41.864Z,101846.63
2023-02-03T10:48:15.963Z,101937.25
2023-02-03T10:50:47.915Z,101944.31
2023-02-03T10:53:40.622Z,101947.81
2023-02-03T10:56:13.059Z,101871.00
2023-02-03T10:58:46.335Z,101910.22
2023-02-03T11:01:15.056Z,101924.28
2023-02-03T11:03:44.161Z,101851.91
2023-02-03T11:06:16.115Z,101941.69
2023-02-03T11:08:46.445Z,101855.38
2023-02-03T11:11:25.456Z,101940.84
2023-02-03T11:14:13.044Z,101940.84
2023-02-03T11:16:41.183Z,101896.38
2023-02-03T11:19:19.959Z,101879.81
2023-02-03T11:21:50.377Z,101928.63
2023-02-03T11:24:32.898Z,101937.34
2023-02-03T11:27:07.543Z,101916.41
2023-02-03T11:29:37.535Z,101879.78
2023-02-03T11:32:18.083Z,101909.47
2023-02-03T11:34:57.541Z,101855.38
2023-02-03T11:37:31.650Z,101956.53
2023-02-03T11:40:26.570Z,101916.38
2023-02-03T11:42:53.151Z,101933.81
2023-02-03T11:45:29.059Z,101944.31
2023-02-03T11:48:06.236Z,101932.97
2023-02-03T11:50:51.552Z,101936.41
2023-02-03T11:53:57.296Z,101871.09
2023-02-03T11:56:50.668Z,101888.50
2023-02-03T11:59:35.721Z,101926.88
2023-02-03T12:02:22.854Z,101935.59
2023-02-03T12:05:11.202Z,101943.47
2023-02-03T12:08:15.522Z,101944.28
2023-02-03T12:11:14.779Z,101891.06
2023-02-03T12:14:00.883Z,101920.75
2023-02-03T12:16:52.201Z,101938.16
2023-02-03T12:19:27.105Z,101940.78
2023-02-03T12:22:14.145Z,101919.00
2023-02-03T12:28:54.918Z,101922.44
2023-02-03T12:31:39.426Z,101925.06
2023-02-03T12:34:22.285Z,101938.97
2023-02-03T12:36:58.740Z,101945.94
2023-02-03T12:39:51.675Z,101924.22
2023-02-03T12:42:51.224Z,101946.84
2023-02-03T12:45:33.745Z,101895.41
2023-02-03T12:48:19.002Z,101873.66
2023-02-03T12:50:52.125Z,101931.09
2023-02-03T12:53:31.036Z,101774.31
2023-02-03T12:56:06.637Z,101879.72
2023-02-03T12:58:47.488Z,101970.41
2023-02-03T13:01:30.351Z,101974.78
2023-02-03T13:04:16.788Z,101827.47
2023-02-03T13:07:21.230Z,101919.84
2023-02-03T13:09:56.636Z,101968.59
2023-02-03T13:12:37.369Z,101968.69
2023-02-03T13:15:22.346Z,101854.47
2023-02-03T13:17:55.622Z,101974.78
2023-02-03T13:20:24.839Z,101922.47
2023-02-03T13:22:53.277Z,101912.75
2023-02-03T13:25:28.620Z,101959.03
2023-02-03T13:28:13.796Z,101965.97
2023-02-03T13:30:59.020Z,101976.44
2023-02-03T13:33:36.255Z,101961.50
2023-02-03T13:36:18.237Z,101845.69
2023-02-03T13:39:09.341Z,101968.53
2023-02-03T13:41:39.595Z,101945.06
2023-02-03T13:44:13.693Z,101799.59
2023-02-03T13:46:43.045Z,101860.47
2023-02-03T13:49:10.101Z,101916.38
2023-02-03T13:51:45.619Z,101901.44
2023-02-03T13:54:26.593Z,101796.06
2023-02-03T13:57:01.327Z,101952.81
2023-02-03T13:59:42.423Z,101878.75
2023-02-03T14:02:24.429Z,101953.81
2023-02-03T14:04:54.548Z,101895.31
2023-02-03T14:07:24.619Z,101963.28
2023-02-03T14:10:12.316Z,101959.91
2023-02-03T14:13:05.406Z,101945.94
2023-02-03T14:15:33.415Z,101949.44
2023-02-03T14:18:01.529Z,101967.59
2023-02-03T14:20:27.866Z,101966.78
2023-02-03T14:23:06.592Z,101913.59
2023-02-03T14:25:39.495Z,101936.22
2023-02-03T14:28:10.668Z,101973.75
2023-02-03T14:31:06.529Z,101980.00
2023-02-03T14:33:49.419Z,101968.50
2023-02-03T14:36:29.902Z,101926.72
2023-02-03T14:38:59.958Z,101913.56
2023-02-03T14:41:31.080Z,101904.78
2023-02-03T14:44:16.679Z,101928.28
2023-02-03T14:47:10.088Z,101971.72
2023-02-03T14:49:45.620Z,101982.53
2023-02-03T14:52:33.231Z,101968.31
2023-02-03T14:55:14.406Z,101910.81
2023-02-03T14:57:49.038Z,101922.34
2023-02-03T15:00:26.118Z,101977.16
2023-02-03T15:03:10.349Z,101994.69
2023-02-03T15:05:45.545Z,101984.28
2023-02-03T15:08:36.937Z,102001.75
2023-02-03T15:11:28.606Z,101994.63
2023-02-03T15:13:57.351Z,102019.25
2023-02-03T15:16:25.177Z,101955.53
2023-02-03T15:19:00.537Z,102000.81
2023-02-03T15:21:27.029Z,101959.94
2023-02-03T15:23:54.024Z,101980.03
2023-02-03T15:26:25.763Z,101945.97
2023-02-03T15:29:00.771Z,101982.53
2023-02-03T15:31:37.174Z,101987.88
2023-02-03T15:34:17.437Z,101991.34
2023-02-03T15:36:48.647Z,102011.44
2023-02-03T15:39:23.051Z,101968.72
2023-02-03T15:41:54.664Z,101989.59
2023-02-03T15:44:41.096Z,101982.72
2023-02-03T15:47:21.148Z,101995.75
2023-02-03T15:49:58.833Z,102032.44
2023-02-03T15:52:28.981Z,101959.16
2023-02-03T15:55:09.956Z,101998.41
2023-02-03T15:57:37.442Z,102003.63
2023-02-03T16:00:28.771Z,102038.56
2023-02-03T16:02:57.942Z,101979.22
2023-02-03T16:05:28.327Z,102060.34
2023-02-03T16:07:55.670Z,101944.31
2023-02-03T16:10:31.689Z,102060.38
2023-02-03T16:13:23.989Z,102069.97
2023-02-03T16:16:08.288Z,102073.44
2023-02-03T16:18:36.900Z,102081.25
2023-02-03T16:21:05.283Z,102057.75
2023-02-03T16:23:32.113Z,102049.00
2023-02-03T16:26:02.298Z,101994.91
2023-02-03T16:28:47.060Z,102096.16
2023-02-03T16:31:35.271Z,102069.91
2023-02-03T16:34:30.924Z,102096.06
2023-02-03T16:37:17.187Z,102051.50
2023-02-03T16:40:02.038Z,102122.22
2023-02-03T16:42:56.494Z,102095.91
2023-02-03T16:45:42.280Z,102125.69
2023-02-03T16:48:29.683Z,102130.84
2023-02-03T16:50:59.335Z,102123.91
2023-02-03T16:53:28.121Z,102114.25
2023-02-03T16:55:57.579Z,102131.81
2023-02-03T16:58:24.498Z,102091.56
2023-02-03T17:00:52.827Z,102105.47
2023-02-03T17:03:24.291Z,101984.09
2023-02-03T17:05:51.751Z,102132.69
2023-02-03T17:08:20.931Z,102135.31
2023-02-03T17:10:50.601Z,102122.19
2023-02-03T17:13:19.633Z,102113.38
2023-02-03T17:15:49.779Z,102104.53
2023-02-03T17:18:16.580Z,102137.81
2023-02-03T17:20:44.469Z,102149.09
2023-02-03T17:23:12.162Z,102088.72
2023-02-03T17:25:39.608Z,102154.41
2023-02-03T17:28:08.223Z,102122.13
2023-02-03T17:30:35.615Z,101997.09
2023-02-03T17:33:03.662Z,102145.53
2023-02-03T17:35:30.411Z,101921.22
2023-02-03T17:37:57.162Z,102149.97
2023-02-03T17:54:10.388Z,102208.47
2023-02-03T17:56:36.936Z,102192.88
2023-02-03T17:59:05.655Z,102079.13
2023-02-03T18:01:32.357Z,102184.84
2023-02-03T18:04:03.549Z,102175.22
2023-02-03T18:06:32.019Z,102202.34
2023-02-03T18:09:01.283Z,102187.53
2023-02-03T18:11:29.013Z,102223.31
2023-02-03T18:13:56.180Z,102199.69
2023-02-03T18:16:28.803Z,102121.84
2023-02-03T18:18:56.540Z,102230.34
2023-02-03T18:21:24.651Z,102228.69
2023-02-03T18:23:51.533Z,102235.56
2023-02-03T18:26:19.716Z,102219.91
2023-02-03T18:28:46.663Z,102201.50
2023-02-03T18:31:15.752Z,102162.09
2023-02-03T18:33:44.254Z,102239.13
2023-02-03T18:36:12.671Z,102141.25
2023-02-03T18:38:40.280Z,102243.53
2023-02-03T18:41:19.014Z,102248.84
2023-02-03T18:43:46.746Z,102191.00
2023-02-03T18:46:17.371Z,102248.84
2023-02-03T18:48:52.389Z,102186.72
2023-02-03T18:51:21.132Z,102254.00
2023-02-03T18:53:51.574Z,102238.16
2023-02-03T18:56:24.973Z,102244.22
2023-02-03T18:58:51.611Z,102167.25
2023-02-03T19:01:29.220Z,102259.31
2023-02-03T19:03:57.127Z,102230.41
2023-02-03T19:06:24.695Z,102270.59
2023-02-03T19:08:51.558Z,102179.59
2023-02-03T19:11:19.901Z,102234.75
2023-02-03T19:13:46.403Z,102133.28
2023-02-03T19:16:16.562Z,102136.88
2023-02-03T19:18:44.927Z,102256.69
2023-02-03T19:21:12.691Z,102257.63
2023-02-03T19:23:40.948Z,102190.06
2023-02-03T19:26:07.758Z,102253.09
2023-02-03T19:28:35.446Z,102163.88
2023-02-03T19:31:07.905Z,102280.22
2023-02-03T19:33:34.657Z,102281.06
2023-02-03T19:36:01.072Z,102275.78
2023-02-03T19:38:27.446Z,102177.75
2023-02-03T19:40:53.916Z,102263.59
2023-02-03T19:43:20.301Z,102265.34
2023-02-03T19:45:46.847Z,102277.50
2023-02-03T19:48:13.316Z,102267.03
2023-02-03T19:50:40.851Z,102176.13
2023-02-03T19:53:09.398Z,102292.47
2023-02-03T19:55:35.739Z,102198.78
2023-02-03T19:58:02.496Z,102268.81
2023-02-03T20:00:29.164Z,102273.09
2023-02-03T20:02:55.816Z,102238.81
2023-02-03T20:05:22.407Z,102262.56
2023-02-03T20:07:48.844Z,102297.66
2023-02-03T20:10:15.508Z,102309.00
2023-02-03T20:12:41.867Z,102295.88
2023-02-03T20:15:08.275Z,102287.16
2023-02-03T20:17:34.649Z,102279.19
2023-02-03T20:20:01.158Z,102315.16
2023-02-03T20:22:27.617Z,102337.91
2023-02-03T20:24:53.996Z,102309.84
2023-02-03T20:27:20.594Z,102243.34
2023-02-03T20:29:48.662Z,102259.13
2023-02-03T20:32:15.307Z,102198.66
2023-02-03T20:34:41.646Z,102356.22
2023-02-03T20:37:08.453Z,102322.81
2023-02-03T20:39:34.979Z,102304.44
2023-02-03T20:42:01.387Z,102314.84
2023-02-03T20:44:27.896Z,102311.50
2023-02-03T20:46:55.755Z,102293.91
2023-02-03T20:49:22.266Z,102308.00
2023-02-03T20:51:48.623Z,102316.69
2023-02-03T20:54:18.714Z,102334.31
2023-02-03T20:56:45.673Z,102300.16
2023-02-03T20:59:15.079Z,102362.06
2023-02-03T21:01:41.621Z,102263.31
2023-02-03T21:04:34.023Z,102316.69
2023-02-03T21:07:01.419Z,102214.28
2023-02-03T21:09:27.929Z,102333.34
2023-02-03T21:11:55.390Z,102369.25
2023-02-03T21:14:25.303Z,102221.16
2023-02-03T21:16:53.960Z,102380.41
2023-02-03T21:19:33.051Z,102336.56
2023-02-03T21:22:04.052Z,102317.28
2023-02-03T21:24:35.594Z,102374.25
2023-02-03T21:27:02.361Z,102278.16
2023-02-03T21:29:33.779Z,102375.13
2023-02-03T21:32:00.358Z,102318.41
2023-02-03T21:34:34.877Z,102262.38
2023-02-03T21:37:12.295Z,102349.84
2023-02-03T21:39:38.628Z,102343.72
2023-02-03T21:42:40.774Z,102327.16
2023-02-03T21:45:24.814Z,102312.31
2023-02-03T21:47:52.488Z,102380.47
2023-02-03T21:50:33.643Z,102349.06
2023-02-03T21:53:09.969Z,102384.09
2023-02-03T21:55:38.172Z,102380.47
2023-02-03T21:58:31.640Z,102350.59
2023-02-03T22:00:59.950Z,102359.28
2023-02-03T22:03:40.593Z,102371.63
2023-02-03T22:06:13.575Z,102375.97
2023-02-03T22:08:43.386Z,102352.34
2023-02-03T22:11:09.857Z,102351.97
2023-02-03T22:13:36.635Z,102387.22
2023-02-03T22:16:03.923Z,102366.88
2023-02-03T22:18:30.849Z,102378.16
2023-02-03T22:20:57.341Z,102367.56
2023-02-03T22:23:23.927Z,102398.25
2023-02-03T22:26:40.060Z,102409.59
2023-02-03T22:29:11.087Z,102316.56
2023-02-03T22:31:37.628Z,102197.81
2023-02-03T22:34:06.796Z,102261.53
2023-02-03T22:36:33.234Z,102386.78
2023-02-03T22:39:01.319Z,102388.59
2023-02-03T22:41:37.425Z,102320.19
2023-02-03T22:44:03.831Z,102319.69
2023-02-03T22:46:38.384Z,102363.81
2023-02-03T22:49:04.822Z,102340.47
2023-02-03T22:51:31.155Z,102319.28
2023-02-03T22:53:57.541Z,102429.03
2023-02-03T22:56:23.889Z,102233.44
2023-02-03T22:58:50.251Z,102393.63
2023-02-03T23:01:16.638Z,102352.34
2023-02-03T23:03:43.058Z,102346.16
2023-02-03T23:06:09.375Z,102302.66
2023-02-03T23:08:35.751Z,102420.84
2023-02-03T23:11:02.672Z,102359.41
2023-02-03T23:13:29.132Z,102472.66
2023-02-03T23:15:55.555Z,102416.66
2023-02-03T23:18:21.963Z,102430.56
2023-02-03T23:20:48.279Z,102331.56
2023-02-03T23:23:14.632Z,102328.66
2023-02-03T23:25:40.963Z,102390.22
2023-02-03T23:28:07.418Z,102341.06
2023-02-03T23:30:34.109Z,102400.47
2023-02-03T23:33:00.506Z,102398.66
2023-02-03T23:35:45.179Z,102414.25
2023-02-03T23:38:12.258Z,102474.75
2023-02-03T23:40:38.604Z,102440.50
2023-02-03T23:43:04.979Z,102376.31
2023-02-03T23:45:31.386Z,102403.53
2023-02-03T23:47:57.909Z,102469.25
2023-02-03T23:50:24.244Z,102493.06
2023-02-03T23:52:50.611Z,102478.13
2023-02-03T23:55:19.218Z,102503.75
2023-02-03T23:57:45.835Z,102472.16
